Lerwick, United Kingdom
Current Conditions -  °F | °C
As of 4:20 AM on Monday 22 Dec 2014 (Local Time) from EGPB Reporting Station
Few Clouds Few Clouds  
Wind Chill:   Ceiling: Unl
Heat Index:   Visibility: 5mi
Dew Point:   Wind: 26mph
Humidity: 81%   Direction: 240°WSW
Pressure: 29.21"   Gusts: NA
Location:  60.15°N, 1.15°W
Report Text: EGPB 220420Z AUTO 24023KT 8000 FEW023/// 07/04 Q0989
Loading
Personal Weather Stations






























Interactive Weather Map New forecast layout! Learn more

10-Day Weather Forecast

Advertisements
Track Severe Weather on mobile